Terminal Aerodrome Forecast
Issued by NWS

Home | Current Version | Previous Version | Text Only | Print | Product List | Glossary On
Versions: 1 2 3 4 5 6 7 8 9 10 11 12 13 14 15 16 17 18 19 20
688
FTPA31 PHFO 301630 AAB
TAFHLI
TAF AMD
PHLI 301630Z 3017/3112 35007KT P6SM VCSH SCT020 BKN035
     FM302100 03012KT P6SM VCSH SCT025 BKN045=

USA.gov is the U.S. government's official web portal to all federal, state and local government web resources and services.